Time;durP1;ratioP1;P1;durP2;ratioP2;P2;SDS_P1;SDS_P2;PMS_P1;PMS_P2;Temp;Humidity;BMP_temperature;BMP_pressure;BME280_temperature;BME280_humidity;BME280_pressure;Samples;Min_cycle;Max_cycle;Signal;HPM_P1;HPM_P2
2023/07/08 00:01:57;;;;;;;;;;;;;;;21.26;50.25;99911.66;10244362;28;884;-73
2023/07/08 00:06:53;;;;;;;;;;;;;;;21.27;50.28;99911.56;10244580;28;1886;-73
2023/07/08 00:11:49;;;;;;;;;;;;;;;21.24;50.25;99901.97;10243935;28;806;-73
2023/07/08 00:16:45;;;;;;;;;;;;;;;21.24;50.12;99896.66;10243831;28;794;-73
2023/07/08 00:21:40;;;;;;;;;;;;;;;21.22;50.22;99893.28;10243716;28;832;-73
2023/07/08 00:26:36;;;;;;;;;;;;;;;21.22;50.34;99898.56;10243593;28;1886;-73
2023/07/08 00:31:32;;;;;;;;;;;;;;;21.20;50.16;99892.50;10244028;28;1310;-73
2023/07/08 00:36:28;;;;;;;;;;;;;;;21.20;50.18;99894.28;10252513;28;909;-73
2023/07/08 00:41:24;;;;;;;;;;;;;;;21.20;50.29;99891.66;10251366;28;778;-73
2023/07/08 00:46:23;;;;;;;;;;;;;;;21.18;50.32;99888.22;10251027;28;1906;-73
2023/07/08 00:51:19;;;;;;;;;;;;;;;21.19;50.29;99885.47;10250943;28;969;-73
2023/07/08 00:56:15;;;;;;;;;;;;;;;21.18;50.29;99881.13;10250781;28;870;-73
2023/07/08 01:01:11;;;;;;;;;;;;;;;21.17;50.40;99876.75;10251268;28;961;-73
2023/07/08 01:06:07;;;;;;;;;;;;;;;21.17;50.23;99871.47;10250331;28;1894;-73
2023/07/08 01:11:03;;;;;;;;;;;;;;;21.16;50.28;99875.03;10251112;28;846;-73
2023/07/08 01:15:59;;;;;;;;;;;;;;;21.13;50.23;99869.91;10250338;28;888;-73
2023/07/08 01:20:55;;;;;;;;;;;;;;;21.16;50.42;99861.78;10249904;28;861;-73
2023/07/08 01:25:51;;;;;;;;;;;;;;;21.15;50.32;99860.09;10249543;28;1945;-73
2023/07/08 01:30:47;;;;;;;;;;;;;;;21.16;50.46;99858.28;10250042;28;1308;-73
2023/07/08 01:35:43;;;;;;;;;;;;;;;21.16;50.41;99843.22;10250181;28;826;-73
2023/07/08 01:40:39;;;;;;;;;;;;;;;21.15;50.38;99838.88;10248503;28;889;-73
2023/07/08 01:45:35;;;;;;;;;;;;;;;21.14;50.39;99839.84;10248298;28;874;-73
2023/07/08 01:50:31;;;;;;;;;;;;;;;21.14;50.39;99836.31;10248633;28;1993;-73
2023/07/08 01:55:28;;;;;;;;;;;;;;;21.12;50.36;99831.09;10249142;28;915;-73
2023/07/08 02:00:24;;;;;;;;;;;;;;;21.12;50.52;99827.59;10248296;28;1170;-73
2023/07/08 02:05:20;;;;;;;;;;;;;;;21.12;50.42;99814.34;10247635;28;948;-73
2023/07/08 02:10:16;;;;;;;;;;;;;;;21.10;50.43;99809.13;10248539;28;1890;-73
2023/07/08 02:15:12;;;;;;;;;;;;;;;21.09;50.56;99815.38;10247829;28;859;-73
2023/07/08 02:20:08;;;;;;;;;;;;;;;21.09;50.51;99812.72;10247678;28;771;-73
2023/07/08 02:25:05;;;;;;;;;;;;;;;21.09;50.51;99818.03;10247329;28;896;-73
2023/07/08 02:30:01;;;;;;;;;;;;;;;21.09;50.59;99811.84;10247133;28;1894;-73
2023/07/08 02:34:57;;;;;;;;;;;;;;;21.06;50.55;99806.72;10247941;28;1388;-73
2023/07/08 02:39:53;;;;;;;;;;;;;;;21.04;50.48;99804.19;10246271;28;848;-73
2023/07/08 02:44:49;;;;;;;;;;;;;;;21.03;50.68;99799.81;10246702;28;893;-73
2023/07/08 02:49:45;;;;;;;;;;;;;;;21.04;50.72;99804.19;10246368;28;1910;-73
2023/07/08 02:54:41;;;;;;;;;;;;;;;21.05;50.69;99803.22;10245959;28;771;-73
2023/07/08 02:59:38;;;;;;;;;;;;;;;21.03;50.68;99805.09;10246940;28;850;-73
2023/07/08 03:04:38;;;;;;;;;;;;;;;21.02;50.57;99808.69;10246451;28;956;-73
2023/07/08 03:09:36;;;;;;;;;;;;;;;21.02;50.82;99806.91;10246248;28;1949;-73
2023/07/08 03:14:32;;;;;;;;;;;;;;;21.01;50.79;99809.63;10244973;28;934;-73
2023/07/08 03:19:28;;;;;;;;;;;;;;;21.00;50.64;99807.94;10245977;28;857;-73
2023/07/08 03:24:24;;;;;;;;;;;;;;;20.97;50.63;99803.66;10244676;28;893;-73
2023/07/08 03:29:20;;;;;;;;;;;;;;;20.98;50.85;99801.84;10244999;28;1964;-73
2023/07/08 03:34:16;;;;;;;;;;;;;;;20.96;50.73;99793.16;10244887;28;1386;-73
2023/07/08 03:39:12;;;;;;;;;;;;;;;20.97;50.76;99794.84;10245025;28;792;-73
2023/07/08 03:44:08;;;;;;;;;;;;;;;20.97;50.67;99808.09;10244606;28;768;-73
2023/07/08 03:49:03;;;;;;;;;;;;;;;20.96;50.65;99809.91;10244486;28;1918;-73
2023/07/08 03:53:59;;;;;;;;;;;;;;;20.96;50.66;99809.91;10244946;28;974;-73
2023/07/08 03:58:55;;;;;;;;;;;;;;;20.95;50.89;99816.13;10244809;28;925;-73
2023/07/08 04:03:51;;;;;;;;;;;;;;;20.94;50.72;99817.06;10244723;28;787;-73
2023/07/08 04:08:47;;;;;;;;;;;;;;;20.94;50.88;99819.72;10243843;28;1953;-72
2023/07/08 04:13:43;;;;;;;;;;;;;;;20.94;50.85;99826.81;10244267;28;803;-72
2023/07/08 04:18:39;;;;;;;;;;;;;;;20.94;50.81;99824.19;10243264;28;818;-72
2023/07/08 04:23:35;;;;;;;;;;;;;;;20.92;50.86;99813.66;10243694;28;810;-72
2023/07/08 04:28:31;;;;;;;;;;;;;;;20.90;50.81;99826.13;10244182;28;1889;-73
2023/07/08 04:33:27;;;;;;;;;;;;;;;20.92;50.84;99829.53;10242736;28;1169;-72
2023/07/08 04:38:22;;;;;;;;;;;;;;;20.92;50.94;99820.75;10243457;28;808;-66
2023/07/08 04:43:18;;;;;;;;;;;;;;;20.90;50.99;99819.97;10243467;28;764;-66
2023/07/08 04:48:14;;;;;;;;;;;;;;;20.88;51.03;99824.50;10243993;28;1914;-66
2023/07/08 04:53:10;;;;;;;;;;;;;;;20.85;51.01;99832.63;10243520;28;968;-66
2023/07/08 04:58:06;;;;;;;;;;;;;;;20.83;51.23;99829.19;10243155;28;818;-65
2023/07/08 05:03:02;;;;;;;;;;;;;;;20.81;51.34;99833.75;10243079;28;798;-66
2023/07/08 05:07:58;;;;;;;;;;;;;;;20.82;51.50;99828.34;10243498;28;1890;-66
2023/07/08 05:12:53;;;;;;;;;;;;;;;20.81;51.21;99831.09;10242816;28;954;-66
2023/07/08 05:17:49;;;;;;;;;;;;;;;20.82;51.30;99830.13;10242392;28;840;-67
2023/07/08 05:22:45;;;;;;;;;;;;;;;20.80;51.43;99835.50;10248229;28;1142;-66
2023/07/08 05:27:41;;;;;;;;;;;;;;;20.74;51.34;99827.91;10249340;28;1894;-66
2023/07/08 05:32:37;;;;;;;;;;;;;;;20.72;51.54;99833.31;10249469;28;1153;-65
2023/07/08 05:37:33;;;;;;;;;;;;;;;20.71;51.62;99826.28;10248680;28;1627;-66
2023/07/08 05:42:29;;;;;;;;;;;;;;;20.72;51.68;99827.13;10248655;28;934;-65
2023/07/08 05:47:25;;;;;;;;;;;;;;;20.72;51.59;99830.66;10248398;28;1911;-65
2023/07/08 05:52:20;;;;;;;;;;;;;;;20.72;51.66;99825.34;10248345;28;787;-66
2023/07/08 05:57:16;;;;;;;;;;;;;;;20.75;51.67;99827.84;10247988;28;847;-65
2023/07/08 06:02:12;;;;;;;;;;;;;;;20.73;51.75;99819.09;10247687;28;863;-65
2023/07/08 06:07:08;;;;;;;;;;;;;;;20.73;51.70;99826.22;10248249;28;1953;-65
2023/07/08 06:12:04;;;;;;;;;;;;;;;20.74;51.81;99830.56;10247573;28;815;-66
2023/07/08 06:17:00;;;;;;;;;;;;;;;20.76;51.83;99831.34;10248433;28;870;-65
2023/07/08 06:21:56;;;;;;;;;;;;;;;20.76;51.73;99824.22;10248218;28;876;-66
2023/07/08 06:26:52;;;;;;;;;;;;;;;20.77;51.83;99823.28;10246515;28;1955;-66
2023/07/08 06:31:47;;;;;;;;;;;;;;;20.79;51.75;99817.91;10246233;28;1833;-66
2023/07/08 06:36:43;;;;;;;;;;;;;;;20.79;51.90;99821.41;10246809;28;774;-66
2023/07/08 06:41:39;;;;;;;;;;;;;;;20.79;51.93;99823.22;10247525;28;856;-66
2023/07/08 06:46:35;;;;;;;;;;;;;;;20.79;52.04;99828.50;10246600;28;1958;-66
2023/07/08 06:51:31;;;;;;;;;;;;;;;20.78;51.98;99826.81;10246790;28;903;-67
2023/07/08 06:56:27;;;;;;;;;;;;;;;20.77;51.87;99823.28;10246302;28;822;-62
2023/07/08 07:01:23;;;;;;;;;;;;;;;20.78;51.80;99826.81;10246876;28;916;-62
2023/07/08 07:06:19;;;;;;;;;;;;;;;20.78;51.93;99825.00;10246544;28;1906;-66
2023/07/08 07:11:14;;;;;;;;;;;;;;;20.84;51.83;99825.63;10245744;28;769;-66
2023/07/08 07:16:10;;;;;;;;;;;;;;;20.86;51.71;99819.28;10245959;28;865;-67
2023/07/08 07:21:06;;;;;;;;;;;;;;;20.88;51.64;99819.19;10245373;28;857;-66
2023/07/08 07:26:03;;;;;;;;;;;;;;;20.86;51.88;99821.09;10245185;28;1957;-65
2023/07/08 07:30:59;;;;;;;;;;;;;;;20.85;51.74;99827.31;10244525;28;1130;-65
2023/07/08 07:35:55;;;;;;;;;;;;;;;20.88;51.82;99829.78;10244803;28;868;-65
2023/07/08 07:40:50;;;;;;;;;;;;;;;20.89;51.64;99831.53;10245218;28;877;-65
2023/07/08 07:45:46;;;;;;;;;;;;;;;20.90;51.51;99834.06;10243368;28;801;-65
2023/07/08 07:50:43;;;;;;;;;;;;;;;20.90;51.25;99831.41;10244409;28;1918;-64
2023/07/08 07:55:39;;;;;;;;;;;;;;;20.91;51.09;99827.84;10244366;28;873;-65
2023/07/08 08:00:35;;;;;;;;;;;;;;;20.91;51.01;99824.34;10244832;28;755;-65
2023/07/08 08:05:31;;;;;;;;;;;;;;;20.90;50.94;99823.47;10244015;28;850;-65
2023/07/08 08:10:27;;;;;;;;;;;;;;;20.91;50.62;99824.34;10243453;28;1952;-65
2023/07/08 08:15:23;;;;;;;;;;;;;;;20.91;50.55;99822.56;10243874;28;923;-65
2023/07/08 08:20:18;;;;;;;;;;;;;;;20.90;50.57;99833.22;10244450;28;892;-66
2023/07/08 08:25:14;;;;;;;;;;;;;;;20.99;50.63;99838.03;10243775;28;859;-71
2023/07/08 08:30:10;;;;;;;;;;;;;;;21.01;50.71;99834.34;10244192;28;1902;-69
2023/07/08 08:35:06;;;;;;;;;;;;;;;21.03;50.66;99839.56;10243478;28;1181;-70
2023/07/08 08:40:02;;;;;;;;;;;;;;;21.02;50.62;99841.34;10244081;28;905;-66
2023/07/08 08:44:58;;;;;;;;;;;;;;;21.02;50.44;99848.44;10243966;28;797;-69
2023/07/08 08:49:54;;;;;;;;;;;;;;;21.03;50.57;99844.84;10243731;28;1918;-70
2023/07/08 08:54:51;;;;;;;;;;;;;;;21.06;50.29;99842.03;10246578;28;784;-70
2023/07/08 08:59:47;;;;;;;;;;;;;;;21.08;50.49;99837.50;10251206;28;1036;-70
2023/07/08 09:04:43;;;;;;;;;;;;;;;21.09;50.59;99838.34;10252017;28;779;-70
2023/07/08 09:09:39;;;;;;;;;;;;;;;21.10;50.59;99837.44;10250940;28;1898;-70
2023/07/08 09:14:34;;;;;;;;;;;;;;;21.10;50.55;99840.94;10250458;28;882;-70
2023/07/08 09:19:30;;;;;;;;;;;;;;;21.11;50.57;99834.69;10250650;28;798;-70
2023/07/08 09:24:27;;;;;;;;;;;;;;;21.12;50.43;99828.44;10249227;28;984;-70
2023/07/08 09:29:23;;;;;;;;;;;;;;;21.13;50.50;99842.56;10249663;28;1898;-70
2023/07/08 09:34:19;;;;;;;;;;;;;;;21.12;50.49;99839.06;10248988;28;1224;-69
2023/07/08 09:39:15;;;;;;;;;;;;;;;21.13;50.47;99848.72;10249332;28;942;-70
2023/07/08 09:44:11;;;;;;;;;;;;;;;21.10;50.72;99843.56;10249082;28;882;-70
2023/07/08 09:49:06;;;;;;;;;;;;;;;21.10;50.59;99842.72;10248319;28;2036;-70
2023/07/08 09:54:02;;;;;;;;;;;;;;;21.13;50.69;99843.41;10248967;28;778;-70
2023/07/08 09:58:58;;;;;;;;;;;;;;;21.15;50.59;99841.53;10248015;28;936;-69
2023/07/08 10:03:54;;;;;;;;;;;;;;;21.16;50.45;99847.69;10248203;28;778;-71
2023/07/08 10:08:50;;;;;;;;;;;;;;;21.17;50.50;99844.97;10247359;28;1890;-71
2023/07/08 10:13:46;;;;;;;;;;;;;;;21.16;50.46;99843.22;10248870;28;921;-71
2023/07/08 10:18:42;;;;;;;;;;;;;;;21.17;50.45;99847.59;10249215;28;870;-71
2023/07/08 10:23:38;;;;;;;;;;;;;;;21.19;50.56;99842.19;10247606;28;842;-69
2023/07/08 10:28:34;;;;;;;;;;;;;;;21.17;50.59;99834.34;10246677;28;1894;-70
2023/07/08 10:33:30;;;;;;;;;;;;;;;21.09;50.77;99844.53;10245814;28;1323;-69
2023/07/08 10:38:26;;;;;;;;;;;;;;;21.05;50.81;99844.78;10247226;28;929;-69
2023/07/08 10:43:21;;;;;;;;;;;;;;;21.04;50.98;99838.63;10246412;28;946;-68
2023/07/08 10:48:17;;;;;;;;;;;;;;;21.03;50.84;99842.19;10246625;28;1911;-68
2023/07/08 10:53:13;;;;;;;;;;;;;;;21.02;50.89;99840.50;10246061;28;787;-68
2023/07/08 10:58:13;;;;;;;;;;;;;;;21.02;50.96;99827.25;10246017;28;913;-68
2023/07/08 11:03:08;;;;;;;;;;;;;;;21.01;50.87;99826.41;10245959;28;853;-69
2023/07/08 11:08:04;;;;;;;;;;;;;;;21.02;51.05;99832.56;10245582;28;1946;-68
2023/07/08 11:13:00;;;;;;;;;;;;;;;21.01;51.07;99815.81;10245472;28;814;-69
2023/07/08 11:17:56;;;;;;;;;;;;;;;21.04;51.08;99820.06;10246584;28;9671;-70
2023/07/08 11:22:52;;;;;;;;;;;;;;;21.05;51.00;99815.63;10244449;28;802;-68
2023/07/08 11:27:48;;;;;;;;;;;;;;;21.02;50.99;99804.25;10242684;28;1975;-68
2023/07/08 11:32:44;;;;;;;;;;;;;;;21.02;51.11;99795.44;10244901;28;1156;-67
2023/07/08 11:37:39;;;;;;;;;;;;;;;21.02;51.03;99795.44;10243910;28;965;-67
2023/07/08 11:42:35;;;;;;;;;;;;;;;21.02;51.01;99798.94;10244688;28;969;-69
2023/07/08 11:47:31;;;;;;;;;;;;;;;21.02;51.01;99790.16;10243903;28;1910;-70
2023/07/08 11:52:27;;;;;;;;;;;;;;;21.02;50.93;99787.50;10244073;28;1232;-68
2023/07/08 11:57:23;;;;;;;;;;;;;;;21.03;50.88;99789.19;10243092;28;841;-69
2023/07/08 12:02:19;;;;;;;;;;;;;;;21.02;50.90;99785.69;10243619;28;1166;-69
2023/07/08 12:07:15;;;;;;;;;;;;;;;21.02;51.08;99777.75;10243424;28;1898;-69
2023/07/08 12:12:11;;;;;;;;;;;;;;;21.04;50.86;99780.31;10244097;28;793;-69
2023/07/08 12:17:06;;;;;;;;;;;;;;;21.04;50.95;99775.03;10243285;28;900;-69
2023/07/08 12:22:02;;;;;;;;;;;;;;;21.04;51.05;99769.72;10243238;28;770;-69
2023/07/08 12:26:58;;;;;;;;;;;;;;;21.05;50.92;99771.41;10243580;28;1914;-68
2023/07/08 12:31:54;;;;;;;;;;;;;;;21.09;50.95;99772.97;10250366;28;1138;-69
2023/07/08 12:36:50;;;;;;;;;;;;;;;21.09;50.99;99769.44;10251290;28;767;-69
2023/07/08 12:41:46;;;;;;;;;;;;;;;21.08;51.05;99763.28;10250653;28;794;-69
2023/07/08 12:46:42;;;;;;;;;;;;;;;21.08;50.77;99768.59;10251134;28;1915;-69
2023/07/08 12:51:38;;;;;;;;;;;;;;;21.09;50.93;99765.03;10250501;28;786;-69
2023/07/08 12:56:34;;;;;;;;;;;;;;;21.11;50.96;99767.56;10250078;28;1126;-68
2023/07/08 13:01:30;;;;;;;;;;;;;;;21.09;51.03;99770.31;10250713;28;834;-68
2023/07/08 13:06:25;;;;;;;;;;;;;;;21.11;50.91;99764.91;10249989;28;1902;-68
2023/07/08 13:11:21;;;;;;;;;;;;;;;21.12;50.82;99769.28;10249777;28;882;-68
2023/07/08 13:16:17;;;;;;;;;;;;;;;21.12;51.06;99762.19;10250183;28;869;-69
2023/07/08 13:21:13;;;;;;;;;;;;;;;21.13;50.89;99763.88;10249017;28;960;-69
2023/07/08 13:26:09;;;;;;;;;;;;;;;21.13;50.95;99769.19;10249430;28;889;-69
2023/07/08 13:31:05;;;;;;;;;;;;;;;21.15;50.86;99766.47;10249658;28;1953;-68
2023/07/08 13:36:01;;;;;;;;;;;;;;;21.16;50.95;99763.72;10249506;28;822;-69
2023/07/08 13:40:57;;;;;;;;;;;;;;;21.16;51.07;99758.41;10249245;28;967;-68
2023/07/08 13:45:52;;;;;;;;;;;;;;;21.17;51.13;99765.44;10249712;28;818;-69
2023/07/08 13:50:48;;;;;;;;;;;;;;;21.19;51.02;99768.81;10248321;28;1977;-68
2023/07/08 13:55:44;;;;;;;;;;;;;;;21.21;51.03;99766.09;10247907;28;1161;-69
2023/07/08 14:00:40;;;;;;;;;;;;;;;21.22;50.88;99759.84;10249779;28;917;-68
2023/07/08 14:05:36;;;;;;;;;;;;;;;21.23;51.03;99756.28;10248784;28;818;-69
2023/07/08 14:10:32;;;;;;;;;;;;;;;21.24;50.92;99760.63;10247571;28;1898;-69
2023/07/08 14:15:28;;;;;;;;;;;;;;;21.26;50.87;99765.84;10248672;28;882;-69
2023/07/08 14:20:25;;;;;;;;;;;;;;;21.28;51.04;99763.97;10247866;28;866;-69
2023/07/08 14:25:23;;;;;;;;;;;;;;;21.28;51.10;99767.47;10247631;28;1016;-68
2023/07/08 14:30:19;;;;;;;;;;;;;;;21.29;51.06;99769.16;10247676;28;1951;-68
2023/07/08 14:35:16;;;;;;;;;;;;;;;21.31;51.04;99766.44;10248334;28;1322;-69
2023/07/08 14:40:11;;;;;;;;;;;;;;;21.32;50.91;99774.28;10247578;28;806;-69
2023/07/08 14:45:07;;;;;;;;;;;;;;;21.33;50.97;99762.75;10246861;28;834;-70
2023/07/08 14:50:03;;;;;;;;;;;;;;;21.34;51.12;99760.94;10246808;28;1973;-69
2023/07/08 14:54:59;;;;;;;;;;;;;;;21.34;51.16;99759.16;10247099;28;877;-69
2023/07/08 14:59:55;;;;;;;;;;;;;;;21.36;51.05;99764.38;10245709;28;1091;-69
2023/07/08 15:04:53;;;;;;;;;;;;;;;21.38;50.92;99752.78;10246724;28;795;-69
2023/07/08 15:09:49;;;;;;;;;;;;;;;21.38;51.07;99760.72;10245823;28;1902;-69
2023/07/08 15:14:45;;;;;;;;;;;;;;;21.39;51.01;99764.22;10245671;28;976;-68
2023/07/08 15:19:41;;;;;;;;;;;;;;;21.42;50.89;99761.38;10246106;28;849;-68
2023/07/08 15:24:37;;;;;;;;;;;;;;;21.42;51.10;99762.25;10246198;28;853;-65
2023/07/08 15:29:33;;;;;;;;;;;;;;;21.44;51.21;99762.16;10245129;28;1957;-66
2023/07/08 15:34:29;;;;;;;;;;;;;;;21.45;51.39;99762.06;10244940;28;1276;-65
2023/07/08 15:39:24;;;;;;;;;;;;;;;21.47;51.47;99750.53;10245481;28;858;-65
2023/07/08 15:44:21;;;;;;;;;;;;;;;21.48;51.60;99750.41;10244685;28;996;-66
2023/07/08 15:49:16;;;;;;;;;;;;;;;21.49;51.65;99743.34;10244653;28;1970;-66
2023/07/08 15:54:12;;;;;;;;;;;;;;;21.51;51.68;99754.69;10244736;28;850;-66
2023/07/08 15:59:08;;;;;;;;;;;;;;;21.50;51.71;99751.19;10244375;28;849;-66
2023/07/08 16:04:04;;;;;;;;;;;;;;;21.52;51.81;99751.09;10242800;28;858;-66
2023/07/08 16:09:00;;;;;;;;;;;;;;;21.53;51.56;99750.16;10243921;28;1971;-66
2023/07/08 16:13:56;;;;;;;;;;;;;;;21.53;51.73;99751.00;10244673;28;802;-65
2023/07/08 16:18:52;;;;;;;;;;;;;;;21.56;51.48;99745.53;10243886;28;764;-66
2023/07/08 16:23:48;;;;;;;;;;;;;;;21.57;51.53;99749.88;10244486;28;776;-65
2023/07/08 16:28:44;;;;;;;;;;;;;;;21.58;51.53;99754.25;10244254;28;1961;-65
2023/07/08 16:33:39;;;;;;;;;;;;;;;21.59;51.60;99755.97;10243340;28;1243;-66
2023/07/08 16:38:35;;;;;;;;;;;;;;;21.61;51.52;99756.72;10242779;28;882;-66
2023/07/08 16:43:31;;;;;;;;;;;;;;;21.62;51.62;99761.09;10243865;28;818;-65
2023/07/08 16:48:27;;;;;;;;;;;;;;;21.64;51.75;99751.25;10243800;28;1907;-66
2023/07/08 16:53:23;;;;;;;;;;;;;;;21.66;51.55;99753.78;10242631;28;1307;-65
2023/07/08 16:58:19;;;;;;;;;;;;;;;21.69;51.85;99752.75;10243195;28;895;-65
2023/07/08 17:03:15;;;;;;;;;;;;;;;21.72;51.58;99749.91;10239272;28;1106;-66
2023/07/08 17:08:11;;;;;;;;;;;;;;;21.72;51.85;99748.13;10239679;28;1955;-66
2023/07/08 17:13:06;;;;;;;;;;;;;;;21.74;51.68;99740.06;10242129;28;1083;-69
2023/07/08 17:18:02;;;;;;;;;;;;;;;21.75;51.86;99741.78;10246337;28;1059;-65
2023/07/08 17:22:58;;;;;;;;;;;;;;;21.75;51.92;99744.44;10249040;28;920;-65
2023/07/08 17:27:54;;;;;;;;;;;;;;;21.76;51.88;99735.53;10249555;28;1894;-65
2023/07/08 17:32:50;;;;;;;;;;;;;;;21.77;51.65;99734.56;10248560;28;1128;-65
2023/07/08 17:37:46;;;;;;;;;;;;;;;21.79;51.74;99735.34;10249263;28;989;-66
2023/07/08 17:42:43;;;;;;;;;;;;;;;21.80;51.90;99724.66;10248527;28;862;-67
2023/07/08 17:47:39;;;;;;;;;;;;;;;21.83;51.70;99724.47;10248867;28;1918;-65
2023/07/08 17:52:35;;;;;;;;;;;;;;;21.86;51.72;99724.25;10249033;28;871;-65
2023/07/08 17:57:31;;;;;;;;;;;;;;;21.87;51.64;99723.31;10249403;28;975;-66
2023/07/08 18:02:26;;;;;;;;;;;;;;;21.89;51.78;99726.72;10248694;28;859;-67
2023/07/08 18:07:25;;;;;;;;;;;;;;;21.91;51.64;99728.44;10248375;28;1894;-65
2023/07/08 18:12:21;;;;;;;;;;;;;;;21.90;51.93;99735.53;10248295;28;848;-66
2023/07/08 18:17:17;;;;;;;;;;;;;;;21.88;52.12;99740.09;10248665;28;806;-66
2023/07/08 18:22:12;;;;;;;;;;;;;;;21.88;52.25;99740.09;10247190;28;1004;-66
2023/07/08 18:27:08;;;;;;;;;;;;;;;21.87;52.12;99746.34;10246687;28;1906;-67
2023/07/08 18:32:04;;;;;;;;;;;;;;;21.88;52.23;99756.03;10247432;28;1127;-66
2023/07/08 18:37:02;;;;;;;;;;;;;;;21.90;52.02;99756.75;10247296;28;900;-66
2023/07/08 18:41:58;;;;;;;;;;;;;;;21.92;51.91;99762.84;10247023;28;883;-66
2023/07/08 18:46:54;;;;;;;;;;;;;;;21.93;51.90;99755.72;10246854;28;1981;-66
2023/07/08 18:51:50;;;;;;;;;;;;;;;21.95;51.88;99764.47;10246243;28;1230;-66
2023/07/08 18:56:46;;;;;;;;;;;;;;;21.95;51.88;99764.47;10246511;28;775;-67
2023/07/08 19:01:42;;;;;;;;;;;;;;;21.97;51.85;99784.66;10246308;28;873;-66
2023/07/08 19:06:38;;;;;;;;;;;;;;;21.99;51.78;99785.41;10247232;28;1964;-66
2023/07/08 19:11:33;;;;;;;;;;;;;;;21.99;52.05;99785.41;10246673;28;830;-66
2023/07/08 19:16:29;;;;;;;;;;;;;;;22.00;52.09;99792.41;10246048;28;1279;-66
2023/07/08 19:21:28;;;;;;;;;;;;;;;22.02;52.15;99798.50;10246195;28;970;-66
2023/07/08 19:26:24;;;;;;;;;;;;;;;22.03;52.07;99805.53;10245387;28;869;-67
2023/07/08 19:31:20;;;;;;;;;;;;;;;22.03;52.07;99831.19;10244877;28;1947;-66
2023/07/08 19:36:16;;;;;;;;;;;;;;;22.04;52.09;99833.78;10245783;28;847;-66
2023/07/08 19:41:12;;;;;;;;;;;;;;;22.03;51.96;99845.34;10244778;28;874;-66
2023/07/08 19:46:08;;;;;;;;;;;;;;;22.03;52.20;99853.31;10244798;28;735;-66
2023/07/08 19:51:04;;;;;;;;;;;;;;;22.04;51.95;99868.28;10243954;28;1977;-66
2023/07/08 19:55:59;;;;;;;;;;;;;;;22.05;52.07;99872.63;10244518;28;818;-66
2023/07/08 20:00:55;;;;;;;;;;;;;;;22.05;51.96;99874.44;10244386;28;818;-66
2023/07/08 20:05:51;;;;;;;;;;;;;;;22.05;52.10;99882.41;10244864;28;869;-66
2023/07/08 20:10:55;;;;;;;;;;;;;;;22.06;51.98;99878.78;10244089;28;1897;-66
2023/07/08 20:15:51;;;;;;;;;;;;;;;22.06;51.94;99873.47;10243938;28;869;-67
2023/07/08 20:20:47;;;;;;;;;;;;;;;22.07;52.07;99881.38;10244782;28;976;-66
2023/07/08 20:25:43;;;;;;;;;;;;;;;22.07;52.06;99875.22;10243783;28;977;-66
2023/07/08 20:30:39;;;;;;;;;;;;;;;22.07;51.93;99884.03;10243512;28;1955;-67
2023/07/08 20:35:35;;;;;;;;;;;;;;;22.08;51.97;99883.06;10244337;28;833;-67
2023/07/08 20:40:31;;;;;;;;;;;;;;;22.10;51.97;99881.19;10243944;28;772;-67
2023/07/08 20:45:26;;;;;;;;;;;;;;;22.14;51.86;99878.34;10243806;28;812;-66
2023/07/08 20:50:24;;;;;;;;;;;;;;;22.14;52.02;99878.34;10246008;28;1976;-66
2023/07/08 20:55:21;;;;;;;;;;;;;;;22.15;51.97;99888.03;10250604;28;1132;-65
2023/07/08 21:00:17;;;;;;;;;;;;;;;22.16;51.92;99884.41;10251522;28;878;-66
2023/07/08 21:05:13;;;;;;;;;;;;;;;22.17;52.12;99883.50;10251321;28;849;-66
2023/07/08 21:10:08;;;;;;;;;;;;;;;22.18;51.94;99882.53;10250450;28;1966;-66
2023/07/08 21:15:04;;;;;;;;;;;;;;;22.19;51.86;99887.81;10249941;28;813;-66
2023/07/08 21:20:00;;;;;;;;;;;;;;;22.19;52.04;99886.91;10250848;28;777;-66
2023/07/08 21:24:56;;;;;;;;;;;;;;;22.20;52.02;99893.97;10249618;28;961;-66
2023/07/08 21:29:52;;;;;;;;;;;;;;;22.19;51.89;99895.78;10250712;28;1914;-66
2023/07/08 21:34:48;;;;;;;;;;;;;;;22.21;52.04;99900.97;10249112;28;1391;-66
2023/07/08 21:39:45;;;;;;;;;;;;;;;22.20;51.97;99896.63;10249378;28;868;-66
2023/07/08 21:44:41;;;;;;;;;;;;;;;22.20;52.17;99905.44;10249295;28;880;-66
2023/07/08 21:49:37;;;;;;;;;;;;;;;22.20;52.18;99896.63;10249072;28;1973;-65
2023/07/08 21:54:32;;;;;;;;;;;;;;;22.20;52.07;99893.97;10249565;28;919;-66
2023/07/08 21:59:28;;;;;;;;;;;;;;;22.21;52.23;99898.31;10249383;28;880;-66
2023/07/08 22:04:24;;;;;;;;;;;;;;;22.21;52.22;99911.59;10247131;28;794;-65
2023/07/08 22:09:20;;;;;;;;;;;;;;;22.20;52.02;99910.75;10248330;28;1894;-65
2023/07/08 22:14:16;;;;;;;;;;;;;;;22.21;52.09;99906.28;10247684;28;963;-65
2023/07/08 22:19:12;;;;;;;;;;;;;;;22.21;52.15;99916.91;10248052;28;814;-65
2023/07/08 22:24:08;;;;;;;;;;;;;;;22.21;52.30;99906.28;10247900;28;774;-65
2023/07/08 22:29:04;;;;;;;;;;;;;;;22.21;52.42;99909.78;10247453;28;1898;-66
2023/07/08 22:34:00;;;;;;;;;;;;;;;22.21;52.15;99903.63;10247447;28;1273;-66
2023/07/08 22:38:56;;;;;;;;;;;;;;;22.19;51.97;99902.84;10246668;28;1261;-66
2023/07/08 22:43:52;;;;;;;;;;;;;;;22.19;51.97;99906.38;10247113;28;849;-66
2023/07/08 22:48:48;;;;;;;;;;;;;;;22.20;51.96;99910.75;10247355;28;1914;-66
2023/07/08 22:53:44;;;;;;;;;;;;;;;22.19;52.11;99902.84;10246257;28;818;-66
2023/07/08 22:58:40;;;;;;;;;;;;;;;22.19;51.97;99902.84;10247762;28;917;-66
2023/07/08 23:03:36;;;;;;;;;;;;;;;22.19;51.92;99916.13;10246848;28;873;-66
2023/07/08 23:08:31;;;;;;;;;;;;;;;22.19;51.98;99914.34;10246677;28;1914;-66
2023/07/08 23:13:28;;;;;;;;;;;;;;;22.16;52.24;99916.28;10245528;28;941;-66
2023/07/08 23:18:23;;;;;;;;;;;;;;;22.15;51.95;99918.09;10246278;28;864;-66
2023/07/08 23:23:19;;;;;;;;;;;;;;;22.17;52.17;99915.34;10245559;28;896;-66
2023/07/08 23:28:15;;;;;;;;;;;;;;;22.19;52.00;99934.72;10245798;28;1965;-66
2023/07/08 23:33:12;;;;;;;;;;;;;;;22.17;51.98;99929.47;10244961;28;1224;-66
2023/07/08 23:38:10;;;;;;;;;;;;;;;22.19;51.96;99940.03;10245094;28;967;-67
2023/07/08 23:43:06;;;;;;;;;;;;;;;22.17;52.00;99932.13;10245510;28;939;-66
2023/07/08 23:48:02;;;;;;;;;;;;;;;22.16;52.25;99938.38;10245331;28;1914;-66
2023/07/08 23:52:59;;;;;;;;;;;;;;;22.14;52.33;99940.28;10244199;28;881;-66
2023/07/08 23:57:55;;;;;;;;;;;;;;;22.17;52.20;99939.25;10244477;28;872;-66
